sensor_id;sensor_type;location;lat;lon;timestamp;P1;durP1;ratioP1;P2;durP2;ratioP2
26702;SDS011;14316;51.074;3.704;2022-10-31T00:00:45;8.88;;;6.20;;
26702;SDS011;14316;51.074;3.704;2022-10-31T00:03:11;8.93;;;6.63;;
26702;SDS011;14316;51.074;3.704;2022-10-31T00:05:40;9.10;;;6.88;;
26702;SDS011;14316;51.074;3.704;2022-10-31T00:08:10;12.02;;;7.32;;
26702;SDS011;14316;51.074;3.704;2022-10-31T00:10:39;9.90;;;7.05;;
26702;SDS011;14316;51.074;3.704;2022-10-31T00:13:06;10.48;;;7.88;;
26702;SDS011;14316;51.074;3.704;2022-10-31T00:15:36;10.90;;;7.03;;
26702;SDS011;14316;51.074;3.704;2022-10-31T00:18:03;9.35;;;7.10;;
26702;SDS011;14316;51.074;3.704;2022-10-31T00:20:30;10.23;;;7.35;;
26702;SDS011;14316;51.074;3.704;2022-10-31T00:22:59;8.23;;;7.00;;
26702;SDS011;14316;51.074;3.704;2022-10-31T00:25:26;9.23;;;7.32;;
26702;SDS011;14316;51.074;3.704;2022-10-31T00:27:53;10.45;;;7.25;;
26702;SDS011;14316;51.074;3.704;2022-10-31T00:30:18;9.10;;;7.15;;
26702;SDS011;14316;51.074;3.704;2022-10-31T00:32:44;10.85;;;7.10;;
26702;SDS011;14316;51.074;3.704;2022-10-31T00:35:10;9.82;;;7.45;;
26702;SDS011;14316;51.074;3.704;2022-10-31T00:37:36;10.88;;;7.68;;
26702;SDS011;14316;51.074;3.704;2022-10-31T00:40:02;10.85;;;7.72;;
26702;SDS011;14316;51.074;3.704;2022-10-31T00:42:27;10.10;;;8.05;;
26702;SDS011;14316;51.074;3.704;2022-10-31T00:44:53;10.95;;;8.13;;
26702;SDS011;14316;51.074;3.704;2022-10-31T00:47:18;10.77;;;8.23;;
26702;SDS011;14316;51.074;3.704;2022-10-31T00:49:44;12.50;;;8.40;;
26702;SDS011;14316;51.074;3.704;2022-10-31T00:52:10;12.98;;;7.93;;
26702;SDS011;14316;51.074;3.704;2022-10-31T00:54:35;10.68;;;7.65;;
26702;SDS011;14316;51.074;3.704;2022-10-31T00:57:01;12.65;;;8.43;;
26702;SDS011;14316;51.074;3.704;2022-10-31T00:59:27;10.02;;;7.82;;
26702;SDS011;14316;51.074;3.704;2022-10-31T01:01:53;13.13;;;7.50;;
26702;SDS011;14316;51.074;3.704;2022-10-31T01:04:18;8.95;;;7.68;;
26702;SDS011;14316;51.074;3.704;2022-10-31T01:06:44;10.98;;;7.80;;
26702;SDS011;14316;51.074;3.704;2022-10-31T01:09:10;13.32;;;8.63;;
26702;SDS011;14316;51.074;3.704;2022-10-31T01:11:35;14.48;;;7.97;;
26702;SDS011;14316;51.074;3.704;2022-10-31T01:14:01;12.10;;;8.48;;
26702;SDS011;14316;51.074;3.704;2022-10-31T01:16:27;12.25;;;8.27;;
26702;SDS011;14316;51.074;3.704;2022-10-31T01:18:54;11.25;;;8.20;;
26702;SDS011;14316;51.074;3.704;2022-10-31T01:21:24;11.02;;;8.00;;
26702;SDS011;14316;51.074;3.704;2022-10-31T01:23:55;12.23;;;8.05;;
26702;SDS011;14316;51.074;3.704;2022-10-31T01:26:22;10.93;;;8.27;;
26702;SDS011;14316;51.074;3.704;2022-10-31T01:31:44;10.45;;;8.50;;
26702;SDS011;14316;51.074;3.704;2022-10-31T01:34:14;11.55;;;8.15;;
26702;SDS011;14316;51.074;3.704;2022-10-31T01:36:42;10.33;;;8.13;;
26702;SDS011;14316;51.074;3.704;2022-10-31T01:39:13;11.93;;;8.57;;
26702;SDS011;14316;51.074;3.704;2022-10-31T01:41:42;10.35;;;8.48;;
26702;SDS011;14316;51.074;3.704;2022-10-31T01:46:40;12.40;;;8.85;;
26702;SDS011;14316;51.074;3.704;2022-10-31T01:49:09;11.23;;;9.00;;
26702;SDS011;14316;51.074;3.704;2022-10-31T01:51:41;10.90;;;8.55;;
26702;SDS011;14316;51.074;3.704;2022-10-31T01:54:15;13.65;;;9.88;;
26702;SDS011;14316;51.074;3.704;2022-10-31T01:56:43;12.50;;;9.63;;
26702;SDS011;14316;51.074;3.704;2022-10-31T01:59:13;11.63;;;9.60;;
26702;SDS011;14316;51.074;3.704;2022-10-31T02:01:44;14.40;;;10.00;;
26702;SDS011;14316;51.074;3.704;2022-10-31T02:04:11;14.40;;;9.90;;
26702;SDS011;14316;51.074;3.704;2022-10-31T02:06:45;13.75;;;10.45;;
26702;SDS011;14316;51.074;3.704;2022-10-31T02:09:14;12.30;;;9.48;;
26702;SDS011;14316;51.074;3.704;2022-10-31T02:11:42;12.82;;;10.63;;
26702;SDS011;14316;51.074;3.704;2022-10-31T02:14:09;14.60;;;10.15;;
26702;SDS011;14316;51.074;3.704;2022-10-31T02:16:35;15.68;;;10.63;;
26702;SDS011;14316;51.074;3.704;2022-10-31T02:19:01;14.55;;;10.85;;
26702;SDS011;14316;51.074;3.704;2022-10-31T02:21:37;15.50;;;10.65;;
26702;SDS011;14316;51.074;3.704;2022-10-31T02:29:52;12.73;;;10.55;;
26702;SDS011;14316;51.074;3.704;2022-10-31T02:33:44;14.00;;;10.60;;
26702;SDS011;14316;51.074;3.704;2022-10-31T02:38:37;16.90;;;11.02;;
26702;SDS011;14316;51.074;3.704;2022-10-31T02:46:33;16.80;;;11.23;;
26702;SDS011;14316;51.074;3.704;2022-10-31T02:51:35;17.70;;;11.88;;
26702;SDS011;14316;51.074;3.704;2022-10-31T02:54:00;16.00;;;11.20;;
26702;SDS011;14316;51.074;3.704;2022-10-31T02:56:27;17.45;;;11.77;;
26702;SDS011;14316;51.074;3.704;2022-10-31T02:58:56;14.27;;;10.70;;
26702;SDS011;14316;51.074;3.704;2022-10-31T03:01:32;14.95;;;10.55;;
26702;SDS011;14316;51.074;3.704;2022-10-31T03:06:34;15.37;;;11.03;;
26702;SDS011;14316;51.074;3.704;2022-10-31T03:09:11;15.88;;;11.55;;
26702;SDS011;14316;51.074;3.704;2022-10-31T03:11:50;15.38;;;10.90;;
26702;SDS011;14316;51.074;3.704;2022-10-31T03:14:41;15.60;;;11.73;;
26702;SDS011;14316;51.074;3.704;2022-10-31T03:17:14;16.47;;;11.70;;
26702;SDS011;14316;51.074;3.704;2022-10-31T03:19:47;16.20;;;11.30;;
26702;SDS011;14316;51.074;3.704;2022-10-31T03:22:17;18.33;;;11.65;;
26702;SDS011;14316;51.074;3.704;2022-10-31T03:24:47;15.23;;;12.48;;
26702;SDS011;14316;51.074;3.704;2022-10-31T03:27:17;17.50;;;12.07;;
26702;SDS011;14316;51.074;3.704;2022-10-31T03:29:47;15.25;;;12.27;;
26702;SDS011;14316;51.074;3.704;2022-10-31T03:32:16;16.98;;;12.40;;
26702;SDS011;14316;51.074;3.704;2022-10-31T03:34:56;18.73;;;13.02;;
26702;SDS011;14316;51.074;3.704;2022-10-31T03:37:25;18.13;;;12.40;;
26702;SDS011;14316;51.074;3.704;2022-10-31T03:39:55;17.88;;;12.25;;
26702;SDS011;14316;51.074;3.704;2022-10-31T03:42:24;14.43;;;11.43;;
26702;SDS011;14316;51.074;3.704;2022-10-31T03:44:56;17.08;;;12.07;;
26702;SDS011;14316;51.074;3.704;2022-10-31T03:47:30;17.77;;;12.80;;
26702;SDS011;14316;51.074;3.704;2022-10-31T03:49:56;17.08;;;12.68;;
26702;SDS011;14316;51.074;3.704;2022-10-31T03:52:41;18.42;;;12.93;;
26702;SDS011;14316;51.074;3.704;2022-10-31T03:55:22;23.10;;;13.85;;
26702;SDS011;14316;51.074;3.704;2022-10-31T03:58:05;17.90;;;12.75;;
26702;SDS011;14316;51.074;3.704;2022-10-31T04:03:07;17.40;;;12.43;;
26702;SDS011;14316;51.074;3.704;2022-10-31T04:05:36;16.23;;;13.20;;
26702;SDS011;14316;51.074;3.704;2022-10-31T04:08:04;17.83;;;12.88;;
26702;SDS011;14316;51.074;3.704;2022-10-31T04:10:35;18.95;;;14.32;;
26702;SDS011;14316;51.074;3.704;2022-10-31T04:13:09;17.90;;;13.65;;
26702;SDS011;14316;51.074;3.704;2022-10-31T04:15:39;17.55;;;13.48;;
26702;SDS011;14316;51.074;3.704;2022-10-31T04:18:07;18.20;;;13.52;;
26702;SDS011;14316;51.074;3.704;2022-10-31T04:20:36;18.27;;;13.52;;
26702;SDS011;14316;51.074;3.704;2022-10-31T04:23:04;17.95;;;14.10;;
26702;SDS011;14316;51.074;3.704;2022-10-31T04:25:38;18.70;;;13.38;;
26702;SDS011;14316;51.074;3.704;2022-10-31T04:28:04;19.75;;;14.60;;
26702;SDS011;14316;51.074;3.704;2022-10-31T04:30:30;21.77;;;15.02;;
26702;SDS011;14316;51.074;3.704;2022-10-31T04:32:56;21.88;;;15.52;;
26702;SDS011;14316;51.074;3.704;2022-10-31T04:35:21;21.85;;;16.23;;
26702;SDS011;14316;51.074;3.704;2022-10-31T04:37:47;19.35;;;16.20;;
26702;SDS011;14316;51.074;3.704;2022-10-31T04:40:12;22.20;;;15.55;;
26702;SDS011;14316;51.074;3.704;2022-10-31T04:42:38;21.60;;;17.02;;
26702;SDS011;14316;51.074;3.704;2022-10-31T04:45:04;22.60;;;15.45;;
26702;SDS011;14316;51.074;3.704;2022-10-31T04:47:31;21.63;;;16.05;;
26702;SDS011;14316;51.074;3.704;2022-10-31T04:49:58;25.27;;;15.60;;
26702;SDS011;14316;51.074;3.704;2022-10-31T04:52:24;18.63;;;13.82;;
26702;SDS011;14316;51.074;3.704;2022-10-31T04:54:49;20.50;;;14.52;;
26702;SDS011;14316;51.074;3.704;2022-10-31T04:57:15;22.83;;;14.50;;
26702;SDS011;14316;51.074;3.704;2022-10-31T04:59:41;19.27;;;14.27;;
26702;SDS011;14316;51.074;3.704;2022-10-31T05:02:06;17.83;;;14.48;;
26702;SDS011;14316;51.074;3.704;2022-10-31T05:04:32;20.75;;;15.40;;
26702;SDS011;14316;51.074;3.704;2022-10-31T05:06:58;21.30;;;14.70;;
26702;SDS011;14316;51.074;3.704;2022-10-31T05:09:24;19.00;;;14.57;;
26702;SDS011;14316;51.074;3.704;2022-10-31T05:11:49;20.20;;;15.15;;
26702;SDS011;14316;51.074;3.704;2022-10-31T05:14:15;20.60;;;14.52;;
26702;SDS011;14316;51.074;3.704;2022-10-31T05:16:41;22.25;;;15.45;;
26702;SDS011;14316;51.074;3.704;2022-10-31T05:19:06;22.17;;;14.95;;
26702;SDS011;14316;51.074;3.704;2022-10-31T05:21:32;21.55;;;15.57;;
26702;SDS011;14316;51.074;3.704;2022-10-31T05:23:58;24.10;;;15.77;;
26702;SDS011;14316;51.074;3.704;2022-10-31T05:26:23;26.20;;;18.08;;
26702;SDS011;14316;51.074;3.704;2022-10-31T05:28:49;25.98;;;16.88;;
26702;SDS011;14316;51.074;3.704;2022-10-31T05:31:15;24.20;;;16.42;;
26702;SDS011;14316;51.074;3.704;2022-10-31T05:33:41;27.00;;;17.10;;
26702;SDS011;14316;51.074;3.704;2022-10-31T05:36:07;25.50;;;18.20;;
26702;SDS011;14316;51.074;3.704;2022-10-31T05:38:32;28.27;;;17.92;;
26702;SDS011;14316;51.074;3.704;2022-10-31T05:40:58;26.95;;;18.85;;
26702;SDS011;14316;51.074;3.704;2022-10-31T05:43:26;29.40;;;18.73;;
26702;SDS011;14316;51.074;3.704;2022-10-31T05:45:52;27.73;;;18.17;;
26702;SDS011;14316;51.074;3.704;2022-10-31T05:48:18;30.65;;;18.83;;
26702;SDS011;14316;51.074;3.704;2022-10-31T05:50:44;26.55;;;18.33;;
26702;SDS011;14316;51.074;3.704;2022-10-31T05:53:12;31.17;;;19.63;;
26702;SDS011;14316;51.074;3.704;2022-10-31T05:55:37;28.02;;;20.08;;
26702;SDS011;14316;51.074;3.704;2022-10-31T05:58:04;31.90;;;19.95;;
26702;SDS011;14316;51.074;3.704;2022-10-31T06:00:30;26.52;;;18.75;;
26702;SDS011;14316;51.074;3.704;2022-10-31T06:02:57;27.63;;;19.42;;
26702;SDS011;14316;51.074;3.704;2022-10-31T06:05:24;30.23;;;19.63;;
26702;SDS011;14316;51.074;3.704;2022-10-31T06:07:50;28.27;;;18.85;;
26702;SDS011;14316;51.074;3.704;2022-10-31T06:10:16;26.85;;;18.80;;
26702;SDS011;14316;51.074;3.704;2022-10-31T06:12:44;25.85;;;18.95;;
26702;SDS011;14316;51.074;3.704;2022-10-31T06:15:09;26.20;;;18.83;;
26702;SDS011;14316;51.074;3.704;2022-10-31T06:17:35;26.25;;;18.60;;
26702;SDS011;14316;51.074;3.704;2022-10-31T06:20:01;22.60;;;18.48;;
26702;SDS011;14316;51.074;3.704;2022-10-31T06:22:28;24.42;;;17.85;;
26702;SDS011;14316;51.074;3.704;2022-10-31T06:24:53;25.05;;;18.67;;
26702;SDS011;14316;51.074;3.704;2022-10-31T06:27:19;23.27;;;18.20;;
26702;SDS011;14316;51.074;3.704;2022-10-31T06:29:45;24.35;;;16.85;;
26702;SDS011;14316;51.074;3.704;2022-10-31T06:32:11;24.88;;;17.45;;
26702;SDS011;14316;51.074;3.704;2022-10-31T06:34:38;23.52;;;16.90;;
26702;SDS011;14316;51.074;3.704;2022-10-31T06:37:05;25.00;;;17.65;;
26702;SDS011;14316;51.074;3.704;2022-10-31T06:39:31;23.17;;;17.98;;
26702;SDS011;14316;51.074;3.704;2022-10-31T06:41:57;25.92;;;17.00;;
26702;SDS011;14316;51.074;3.704;2022-10-31T06:44:23;22.02;;;16.83;;
26702;SDS011;14316;51.074;3.704;2022-10-31T06:46:49;24.00;;;16.85;;
26702;SDS011;14316;51.074;3.704;2022-10-31T06:49:14;22.30;;;17.08;;
26702;SDS011;14316;51.074;3.704;2022-10-31T06:51:40;20.13;;;16.58;;
26702;SDS011;14316;51.074;3.704;2022-10-31T06:54:06;21.48;;;16.95;;
26702;SDS011;14316;51.074;3.704;2022-10-31T06:56:31;21.63;;;17.17;;
26702;SDS011;14316;51.074;3.704;2022-10-31T06:58:57;24.13;;;16.30;;
26702;SDS011;14316;51.074;3.704;2022-10-31T07:01:22;21.35;;;16.63;;
26702;SDS011;14316;51.074;3.704;2022-10-31T07:03:48;22.15;;;15.73;;
26702;SDS011;14316;51.074;3.704;2022-10-31T07:06:14;16.35;;;14.52;;
26702;SDS011;14316;51.074;3.704;2022-10-31T07:08:39;18.50;;;14.70;;
26702;SDS011;14316;51.074;3.704;2022-10-31T07:11:05;17.75;;;14.38;;
26702;SDS011;14316;51.074;3.704;2022-10-31T07:13:31;18.58;;;15.55;;
26702;SDS011;14316;51.074;3.704;2022-10-31T07:16:00;16.90;;;14.93;;
26702;SDS011;14316;51.074;3.704;2022-10-31T07:18:28;18.17;;;15.75;;
26702;SDS011;14316;51.074;3.704;2022-10-31T07:20:53;19.92;;;15.43;;
26702;SDS011;14316;51.074;3.704;2022-10-31T07:23:20;18.70;;;14.98;;
26702;SDS011;14316;51.074;3.704;2022-10-31T07:25:46;20.20;;;15.45;;
26702;SDS011;14316;51.074;3.704;2022-10-31T07:28:12;18.50;;;14.80;;
26702;SDS011;14316;51.074;3.704;2022-10-31T07:30:38;16.75;;;14.70;;
26702;SDS011;14316;51.074;3.704;2022-10-31T07:33:04;18.00;;;14.35;;
26702;SDS011;14316;51.074;3.704;2022-10-31T07:35:31;19.83;;;14.50;;
26702;SDS011;14316;51.074;3.704;2022-10-31T07:37:57;18.85;;;15.77;;
26702;SDS011;14316;51.074;3.704;2022-10-31T07:40:31;17.25;;;13.93;;
26702;SDS011;14316;51.074;3.704;2022-10-31T07:42:57;17.85;;;14.73;;
26702;SDS011;14316;51.074;3.704;2022-10-31T07:45:23;19.10;;;15.18;;
26702;SDS011;14316;51.074;3.704;2022-10-31T07:47:49;17.80;;;14.85;;
26702;SDS011;14316;51.074;3.704;2022-10-31T07:50:18;18.33;;;14.82;;
26702;SDS011;14316;51.074;3.704;2022-10-31T07:52:46;17.80;;;14.38;;
26702;SDS011;14316;51.074;3.704;2022-10-31T07:55:12;18.42;;;14.75;;
26702;SDS011;14316;51.074;3.704;2022-10-31T07:57:38;21.88;;;15.85;;
26702;SDS011;14316;51.074;3.704;2022-10-31T08:00:09;19.27;;;15.38;;
26702;SDS011;14316;51.074;3.704;2022-10-31T08:02:35;23.42;;;15.55;;
26702;SDS011;14316;51.074;3.704;2022-10-31T08:05:01;16.17;;;14.52;;
26702;SDS011;14316;51.074;3.704;2022-10-31T08:07:28;20.10;;;15.60;;
26702;SDS011;14316;51.074;3.704;2022-10-31T08:09:56;18.70;;;16.05;;
26702;SDS011;14316;51.074;3.704;2022-10-31T08:12:21;18.75;;;15.50;;
26702;SDS011;14316;51.074;3.704;2022-10-31T08:14:47;18.27;;;16.08;;
26702;SDS011;14316;51.074;3.704;2022-10-31T08:17:12;19.10;;;16.75;;
26702;SDS011;14316;51.074;3.704;2022-10-31T08:19:38;19.40;;;16.27;;
26702;SDS011;14316;51.074;3.704;2022-10-31T08:22:04;21.65;;;16.05;;
26702;SDS011;14316;51.074;3.704;2022-10-31T08:24:29;18.92;;;15.35;;
26702;SDS011;14316;51.074;3.704;2022-10-31T08:26:55;18.33;;;15.68;;
26702;SDS011;14316;51.074;3.704;2022-10-31T08:29:21;19.85;;;15.70;;
26702;SDS011;14316;51.074;3.704;2022-10-31T08:31:46;19.67;;;15.80;;
26702;SDS011;14316;51.074;3.704;2022-10-31T08:34:12;18.30;;;16.30;;
26702;SDS011;14316;51.074;3.704;2022-10-31T08:36:38;19.40;;;15.43;;
26702;SDS011;14316;51.074;3.704;2022-10-31T08:39:05;20.30;;;14.73;;
26702;SDS011;14316;51.074;3.704;2022-10-31T08:41:30;18.20;;;15.50;;
26702;SDS011;14316;51.074;3.704;2022-10-31T08:43:56;18.42;;;15.73;;
26702;SDS011;14316;51.074;3.704;2022-10-31T08:46:22;18.30;;;14.77;;
26702;SDS011;14316;51.074;3.704;2022-10-31T08:48:48;20.05;;;16.17;;
26702;SDS011;14316;51.074;3.704;2022-10-31T08:51:14;17.63;;;15.73;;
26702;SDS011;14316;51.074;3.704;2022-10-31T08:53:40;18.83;;;15.70;;
26702;SDS011;14316;51.074;3.704;2022-10-31T08:56:05;21.50;;;17.90;;
26702;SDS011;14316;51.074;3.704;2022-10-31T08:58:31;19.80;;;17.27;;
26702;SDS011;14316;51.074;3.704;2022-10-31T09:00:58;23.10;;;15.75;;
26702;SDS011;14316;51.074;3.704;2022-10-31T09:03:25;16.58;;;13.82;;
26702;SDS011;14316;51.074;3.704;2022-10-31T09:05:59;18.90;;;15.13;;
26702;SDS011;14316;51.074;3.704;2022-10-31T09:08:28;17.83;;;14.73;;
26702;SDS011;14316;51.074;3.704;2022-10-31T09:10:55;19.05;;;14.93;;
26702;SDS011;14316;51.074;3.704;2022-10-31T09:13:22;16.13;;;14.38;;
26702;SDS011;14316;51.074;3.704;2022-10-31T09:15:48;22.45;;;14.50;;
26702;SDS011;14316;51.074;3.704;2022-10-31T09:18:16;17.15;;;14.25;;
26702;SDS011;14316;51.074;3.704;2022-10-31T09:20:43;19.20;;;14.40;;
26702;SDS011;14316;51.074;3.704;2022-10-31T09:23:11;15.27;;;13.25;;
26702;SDS011;14316;51.074;3.704;2022-10-31T09:25:45;15.50;;;12.50;;
26702;SDS011;14316;51.074;3.704;2022-10-31T09:28:12;17.27;;;13.98;;
26702;SDS011;14316;51.074;3.704;2022-10-31T09:30:39;14.73;;;13.18;;
26702;SDS011;14316;51.074;3.704;2022-10-31T09:33:06;21.88;;;15.20;;
26702;SDS011;14316;51.074;3.704;2022-10-31T09:35:35;19.13;;;13.73;;
26702;SDS011;14316;51.074;3.704;2022-10-31T09:38:05;16.25;;;14.35;;
26702;SDS011;14316;51.074;3.704;2022-10-31T09:40:47;18.30;;;15.73;;
26702;SDS011;14316;51.074;3.704;2022-10-31T09:51:50;18.70;;;14.32;;
26702;SDS011;14316;51.074;3.704;2022-10-31T09:54:49;16.92;;;14.23;;
26702;SDS011;14316;51.074;3.704;2022-10-31T09:57:35;17.70;;;13.07;;
26702;SDS011;14316;51.074;3.704;2022-10-31T10:00:06;16.75;;;12.93;;
26702;SDS011;14316;51.074;3.704;2022-10-31T10:02:40;26.63;;;14.27;;
26702;SDS011;14316;51.074;3.704;2022-10-31T10:08:09;15.88;;;13.02;;
26702;SDS011;14316;51.074;3.704;2022-10-31T10:30:21;18.48;;;14.10;;
26702;SDS011;14316;51.074;3.704;2022-10-31T10:33:05;24.98;;;13.52;;
26702;SDS011;14316;51.074;3.704;2022-10-31T10:35:47;18.80;;;15.38;;
26702;SDS011;14316;51.074;3.704;2022-10-31T10:38:21;16.60;;;11.98;;
26702;SDS011;14316;51.074;3.704;2022-10-31T10:40:54;15.65;;;11.60;;
26702;SDS011;14316;51.074;3.704;2022-10-31T10:43:24;13.45;;;11.55;;
26702;SDS011;14316;51.074;3.704;2022-10-31T10:57:10;15.38;;;9.77;;
26702;SDS011;14316;51.074;3.704;2022-10-31T10:59:55;14.73;;;11.63;;
26702;SDS011;14316;51.074;3.704;2022-10-31T11:02:38;11.55;;;9.63;;
26702;SDS011;14316;51.074;3.704;2022-10-31T11:05:03;13.65;;;10.27;;
26702;SDS011;14316;51.074;3.704;2022-10-31T11:07:50;14.30;;;10.57;;
26702;SDS011;14316;51.074;3.704;2022-10-31T11:10:16;11.32;;;8.65;;
26702;SDS011;14316;51.074;3.704;2022-10-31T11:12:42;12.10;;;9.63;;
26702;SDS011;14316;51.074;3.704;2022-10-31T11:15:21;15.93;;;10.10;;
26702;SDS011;14316;51.074;3.704;2022-10-31T11:17:52;15.35;;;10.35;;
26702;SDS011;14316;51.074;3.704;2022-10-31T11:22:46;18.90;;;12.77;;
26702;SDS011;14316;51.074;3.704;2022-10-31T11:27:45;15.95;;;11.10;;
26702;SDS011;14316;51.074;3.704;2022-10-31T11:30:14;14.88;;;11.85;;
26702;SDS011;14316;51.074;3.704;2022-10-31T11:32:42;14.57;;;11.55;;
26702;SDS011;14316;51.074;3.704;2022-10-31T11:35:13;17.83;;;12.30;;
26702;SDS011;14316;51.074;3.704;2022-10-31T11:37:43;15.60;;;10.63;;
26702;SDS011;14316;51.074;3.704;2022-10-31T11:40:14;15.57;;;12.25;;
26702;SDS011;14316;51.074;3.704;2022-10-31T11:42:42;15.50;;;11.80;;
26702;SDS011;14316;51.074;3.704;2022-10-31T11:45:51;17.67;;;12.27;;
26702;SDS011;14316;51.074;3.704;2022-10-31T11:47:59;15.02;;;11.77;;
26702;SDS011;14316;51.074;3.704;2022-10-31T11:50:35;13.93;;;11.85;;
26702;SDS011;14316;51.074;3.704;2022-10-31T11:53:11;14.65;;;11.57;;
26702;SDS011;14316;51.074;3.704;2022-10-31T11:55:40;14.65;;;12.65;;
26702;SDS011;14316;51.074;3.704;2022-10-31T11:58:22;17.55;;;12.57;;
26702;SDS011;14316;51.074;3.704;2022-10-31T12:00:51;15.55;;;11.57;;
26702;SDS011;14316;51.074;3.704;2022-10-31T12:03:36;14.03;;;12.10;;
26702;SDS011;14316;51.074;3.704;2022-10-31T12:08:50;13.88;;;11.05;;
26702;SDS011;14316;51.074;3.704;2022-10-31T12:25:02;16.83;;;12.75;;
26702;SDS011;14316;51.074;3.704;2022-10-31T12:30:28;16.60;;;12.75;;
26702;SDS011;14316;51.074;3.704;2022-10-31T12:33:21;13.80;;;12.35;;
26702;SDS011;14316;51.074;3.704;2022-10-31T12:36:19;18.75;;;13.40;;
26702;SDS011;14316;51.074;3.704;2022-10-31T12:44:44;15.85;;;12.18;;
26702;SDS011;14316;51.074;3.704;2022-10-31T12:49:46;18.35;;;13.18;;
26702;SDS011;14316;51.074;3.704;2022-10-31T12:54:53;19.15;;;14.10;;
26702;SDS011;14316;51.074;3.704;2022-10-31T12:57:25;17.67;;;13.98;;
26702;SDS011;14316;51.074;3.704;2022-10-31T13:02:44;17.70;;;13.18;;
26702;SDS011;14316;51.074;3.704;2022-10-31T13:10:25;18.42;;;13.65;;
26702;SDS011;14316;51.074;3.704;2022-10-31T13:16:24;17.25;;;13.63;;
26702;SDS011;14316;51.074;3.704;2022-10-31T13:18:58;15.63;;;13.90;;
26702;SDS011;14316;51.074;3.704;2022-10-31T13:21:37;19.50;;;12.90;;
26702;SDS011;14316;51.074;3.704;2022-10-31T13:24:12;14.60;;;12.30;;
26702;SDS011;14316;51.074;3.704;2022-10-31T13:26:44;16.60;;;12.18;;
26702;SDS011;14316;51.074;3.704;2022-10-31T13:31:45;16.17;;;12.43;;
26702;SDS011;14316;51.074;3.704;2022-10-31T13:45:15;14.80;;;10.65;;
26702;SDS011;14316;51.074;3.704;2022-10-31T13:47:42;18.80;;;11.10;;
26702;SDS011;14316;51.074;3.704;2022-10-31T13:50:23;20.65;;;12.23;;
26702;SDS011;14316;51.074;3.704;2022-10-31T13:52:51;14.00;;;11.13;;
26702;SDS011;14316;51.074;3.704;2022-10-31T13:58:38;12.88;;;11.10;;
26702;SDS011;14316;51.074;3.704;2022-10-31T14:01:22;13.25;;;10.20;;
26702;SDS011;14316;51.074;3.704;2022-10-31T14:04:05;13.88;;;11.02;;
26702;SDS011;14316;51.074;3.704;2022-10-31T14:07:04;19.27;;;11.80;;
26702;SDS011;14316;51.074;3.704;2022-10-31T14:12:03;16.33;;;11.43;;
26702;SDS011;14316;51.074;3.704;2022-10-31T14:14:41;17.13;;;11.73;;
26702;SDS011;14316;51.074;3.704;2022-10-31T14:17:21;17.77;;;12.45;;
26702;SDS011;14316;51.074;3.704;2022-10-31T14:19:57;17.77;;;13.13;;
26702;SDS011;14316;51.074;3.704;2022-10-31T14:22:35;18.13;;;13.75;;
26702;SDS011;14316;51.074;3.704;2022-10-31T14:27:50;16.88;;;14.73;;
26702;SDS011;14316;51.074;3.704;2022-10-31T14:30:18;17.15;;;12.10;;
26702;SDS011;14316;51.074;3.704;2022-10-31T14:32:55;19.17;;;13.13;;
26702;SDS011;14316;51.074;3.704;2022-10-31T14:35:25;16.98;;;13.57;;
26702;SDS011;14316;51.074;3.704;2022-10-31T14:38:26;22.35;;;15.38;;
26702;SDS011;14316;51.074;3.704;2022-10-31T14:41:03;22.40;;;15.43;;
26702;SDS011;14316;51.074;3.704;2022-10-31T14:46:17;22.50;;;15.52;;
26702;SDS011;14316;51.074;3.704;2022-10-31T14:51:58;18.77;;;15.60;;
26702;SDS011;14316;51.074;3.704;2022-10-31T14:54:32;20.08;;;15.75;;
26702;SDS011;14316;51.074;3.704;2022-10-31T14:57:45;19.63;;;16.92;;
26702;SDS011;14316;51.074;3.704;2022-10-31T15:00:12;22.63;;;15.75;;
26702;SDS011;14316;51.074;3.704;2022-10-31T15:05:32;24.65;;;18.98;;
26702;SDS011;14316;51.074;3.704;2022-10-31T15:08:00;28.73;;;20.98;;
26702;SDS011;14316;51.074;3.704;2022-10-31T15:10:30;28.48;;;18.65;;
26702;SDS011;14316;51.074;3.704;2022-10-31T15:13:09;31.35;;;24.73;;
26702;SDS011;14316;51.074;3.704;2022-10-31T15:15:46;31.40;;;24.63;;
26702;SDS011;14316;51.074;3.704;2022-10-31T15:18:16;43.47;;;35.55;;
26702;SDS011;14316;51.074;3.704;2022-10-31T15:20:45;26.48;;;18.73;;
26702;SDS011;14316;51.074;3.704;2022-10-31T15:23:25;23.25;;;18.25;;
26702;SDS011;14316;51.074;3.704;2022-10-31T15:25:59;27.30;;;20.90;;
26702;SDS011;14316;51.074;3.704;2022-10-31T15:28:29;23.83;;;20.27;;
26702;SDS011;14316;51.074;3.704;2022-10-31T15:30:57;28.63;;;19.63;;
26702;SDS011;14316;51.074;3.704;2022-10-31T15:33:25;25.55;;;17.50;;
26702;SDS011;14316;51.074;3.704;2022-10-31T15:35:56;23.65;;;18.20;;
26702;SDS011;14316;51.074;3.704;2022-10-31T15:38:24;27.48;;;18.50;;
26702;SDS011;14316;51.074;3.704;2022-10-31T15:40:52;25.23;;;19.73;;
26702;SDS011;14316;51.074;3.704;2022-10-31T15:43:20;26.77;;;17.60;;
26702;SDS011;14316;51.074;3.704;2022-10-31T15:45:49;28.17;;;19.50;;
26702;SDS011;14316;51.074;3.704;2022-10-31T15:48:16;27.17;;;19.02;;
26702;SDS011;14316;51.074;3.704;2022-10-31T15:50:51;22.77;;;18.15;;
26702;SDS011;14316;51.074;3.704;2022-10-31T15:53:26;25.25;;;19.52;;
26702;SDS011;14316;51.074;3.704;2022-10-31T15:55:56;28.50;;;18.95;;
26702;SDS011;14316;51.074;3.704;2022-10-31T15:58:25;23.30;;;18.45;;
26702;SDS011;14316;51.074;3.704;2022-10-31T16:01:03;24.40;;;18.80;;
26702;SDS011;14316;51.074;3.704;2022-10-31T16:03:31;27.67;;;18.98;;
26702;SDS011;14316;51.074;3.704;2022-10-31T16:05:59;26.52;;;18.63;;
26702;SDS011;14316;51.074;3.704;2022-10-31T16:08:32;30.42;;;20.42;;
26702;SDS011;14316;51.074;3.704;2022-10-31T16:11:00;25.35;;;18.08;;
26702;SDS011;14316;51.074;3.704;2022-10-31T16:13:59;24.35;;;16.85;;
26702;SDS011;14316;51.074;3.704;2022-10-31T16:16:53;27.75;;;19.02;;
26702;SDS011;14316;51.074;3.704;2022-10-31T16:19:22;26.10;;;17.50;;
26702;SDS011;14316;51.074;3.704;2022-10-31T16:22:03;26.17;;;16.73;;
26702;SDS011;14316;51.074;3.704;2022-10-31T16:24:32;21.95;;;16.88;;
26702;SDS011;14316;51.074;3.704;2022-10-31T16:27:04;29.02;;;17.88;;
26702;SDS011;14316;51.074;3.704;2022-10-31T16:29:33;27.20;;;17.63;;
26702;SDS011;14316;51.074;3.704;2022-10-31T16:35:00;25.27;;;17.50;;
26702;SDS011;14316;51.074;3.704;2022-10-31T16:37:46;23.50;;;16.17;;
26702;SDS011;14316;51.074;3.704;2022-10-31T16:40:12;22.52;;;16.48;;
26702;SDS011;14316;51.074;3.704;2022-10-31T16:42:39;24.45;;;16.63;;
26702;SDS011;14316;51.074;3.704;2022-10-31T16:45:06;29.45;;;19.63;;
26702;SDS011;14316;51.074;3.704;2022-10-31T16:47:38;33.00;;;21.90;;
26702;SDS011;14316;51.074;3.704;2022-10-31T16:50:05;29.38;;;20.83;;
26702;SDS011;14316;51.074;3.704;2022-10-31T16:52:36;28.02;;;19.58;;
26702;SDS011;14316;51.074;3.704;2022-10-31T16:55:02;34.50;;;20.95;;
26702;SDS011;14316;51.074;3.704;2022-10-31T16:57:29;35.20;;;24.50;;
26702;SDS011;14316;51.074;3.704;2022-10-31T16:59:56;30.73;;;19.25;;
26702;SDS011;14316;51.074;3.704;2022-10-31T17:02:22;27.00;;;19.13;;
26702;SDS011;14316;51.074;3.704;2022-10-31T17:04:48;23.85;;;18.02;;
26702;SDS011;14316;51.074;3.704;2022-10-31T17:07:13;29.17;;;18.00;;
26702;SDS011;14316;51.074;3.704;2022-10-31T17:09:40;28.13;;;17.60;;